Time;durP1;ratioP1;P1;durP2;ratioP2;P2;SDS_P1;SDS_P2;PMS_P1;PMS_P2;Temp;Humidity;BMP_temperature;BMP_pressure;BME280_temperature;BME280_humidity;BME280_pressure;Samples;Min_cycle;Max_cycle;Signal;HPM_P1;HPM_P2
2023/01/11 00:01:34;;;;;;;2.60;1.20;;;;;;;5.00;100.00;96534.03;4978306;28;20207;-70
2023/01/11 00:04:00;;;;;;;4.40;1.30;;;;;;;5.04;100.00;96531.97;4977340;28;20211;-70
2023/01/11 00:06:27;;;;;;;3.50;1.10;;;;;;;5.00;100.00;96530.59;4977250;28;20219;-69
2023/01/11 00:08:55;;;;;;;2.23;1.10;;;;;;;5.02;100.00;96524.28;4978822;28;20199;-69
2023/01/11 00:11:21;;;;;;;1.60;1.07;;;;;;;5.09;100.00;96530.63;4979297;28;20214;-70
2023/01/11 00:13:48;;;;;;;5.87;1.10;;;;;;;4.98;99.98;96524.69;4976688;28;20206;-70
2023/01/11 00:16:14;;;;;;;2.53;0.90;;;;;;;4.98;100.00;96517.66;4977907;28;20239;-70
2023/01/11 00:18:42;;;;;;;2.00;1.13;;;;;;;5.04;100.00;96517.13;4978402;28;20233;-70
2023/01/11 00:21:09;;;;;;;1.87;0.70;;;;;;;4.99;99.75;96524.56;4977717;28;20687;-70
2023/01/11 00:23:37;;;;;;;2.23;0.77;;;;;;;4.98;99.80;96522.91;4977017;28;20206;-70
2023/01/11 00:26:04;;;;;;;1.50;0.97;;;;;;;5.06;98.83;96525.63;4978308;28;20227;-70
2023/01/11 00:28:30;;;;;;;3.90;0.80;;;;;;;4.91;98.82;96524.41;4977634;28;20211;-70
2023/01/11 00:30:57;;;;;;;1.13;0.83;;;;;;;4.95;99.94;96536.22;4977623;28;20210;-70
2023/01/11 00:33:23;;;;;;;2.87;1.00;;;;;;;5.01;98.34;96538.28;4976656;28;20235;-70
2023/01/11 00:35:52;;;;;;;4.87;1.30;;;;;;;5.10;98.88;96532.22;4976796;28;20203;-70
2023/01/11 00:47:55;;;;;;;1.30;0.80;;;;;;;5.11;99.08;96523.44;4978596;28;20213;-70
2023/01/11 00:49:13;;;;;;;1.53;0.90;;;;;;;5.17;97.08;96517.69;4981562;28;20593;-70
2023/01/11 00:51:41;;;;;;;2.53;0.87;;;;;;;5.11;98.18;96523.44;4981814;28;20203;-70
2023/01/11 00:54:08;;;;;;;0.83;0.73;;;;;;;5.07;99.64;96521.25;4980519;28;20207;-70
2023/01/11 00:56:34;;;;;;;4.17;0.83;;;;;;;5.18;97.23;96516.72;4981113;28;20234;-70
2023/01/11 00:59:01;;;;;;;0.70;0.57;;;;;;;5.25;97.75;96523.03;4981396;28;20277;-70
2023/01/11 01:01:27;;;;;;;1.30;0.93;;;;;;;5.23;98.74;96517.16;4980616;28;20214;-70
2023/01/11 01:03:54;;;;;;;4.37;0.80;;;;;;;5.29;98.19;96516.56;4980498;28;20203;-70
2023/01/11 01:06:20;;;;;;;1.03;0.70;;;;;;;5.23;98.32;96505.84;4981316;28;20234;-70
2023/01/11 01:08:48;;;;;;;1.17;0.90;;;;;;;5.29;97.06;96502.69;4980861;28;20214;-70
2023/01/11 01:11:15;;;;;;;1.90;0.90;;;;;;;5.26;97.18;96495.16;4981135;28;20218;-70
2023/01/11 01:16:25;;;;;;;2.00;0.90;;;;;;;5.23;96.76;96485.78;4980903;28;20245;-70
2023/01/11 01:18:55;;;;;;;2.10;0.70;;;;;;;5.12;96.74;96488.53;4981782;28;20222;-70
2023/01/11 01:21:22;;;;;;;1.30;0.80;;;;;;;5.14;96.42;96486.63;4981827;28;21108;-71
2023/01/11 01:23:51;;;;;;;1.73;0.80;;;;;;;5.22;96.89;96480.69;4980438;28;20204;-70
2023/01/11 01:26:17;;;;;;;2.50;0.70;;;;;;;5.00;96.40;96486.19;4980770;28;20357;-70
2023/01/11 01:28:44;;;;;;;2.40;1.00;;;;;;;5.10;95.92;96494.84;4981632;28;20211;-70
2023/01/11 01:31:10;;;;;;;2.03;0.80;;;;;;;5.10;96.12;96485.22;4981065;28;20207;-70
2023/01/11 01:33:36;;;;;;;3.13;1.03;;;;;;;5.09;96.00;96481.00;4980255;28;20207;-70
2023/01/11 01:36:03;;;;;;;1.17;0.80;;;;;;;5.06;96.72;96469.97;4980808;28;20223;-70
2023/01/11 01:38:30;;;;;;;1.00;0.70;;;;;;;4.89;96.48;96471.50;4980888;28;20234;-70
2023/01/11 01:40:58;;;;;;;1.77;0.80;;;;;;;5.07;96.19;96469.84;4980653;28;20203;-70
2023/01/11 01:43:46;;;;;;;3.53;1.10;;;;;;;5.12;95.86;96474.66;4980511;28;21199;-70
2023/01/11 01:46:13;;;;;;;0.60;0.50;;;;;;;4.89;95.59;96470.69;4980274;28;20222;-70
2023/01/11 01:48:43;;;;;;;1.17;0.80;;;;;;;4.99;95.10;96467.09;4980858;28;20210;-71
2023/01/11 01:51:12;;;;;;;1.80;1.00;;;;;;;4.97;94.41;96460.38;4980518;28;20207;-70
2023/01/11 01:53:43;;;;;;;2.30;0.90;;;;;;;4.97;94.82;96471.63;4978953;28;20584;-70
2023/01/11 01:56:15;;;;;;;1.83;0.83;;;;;;;5.05;93.88;96461.34;4979959;28;20237;-70
2023/01/11 01:58:48;;;;;;;0.87;0.67;;;;;;;5.09;94.07;96460.09;4980394;28;20612;-70
2023/01/11 02:04:40;;;;;;;1.53;0.77;;;;;;;5.09;93.73;96457.47;4977543;28;20209;-70
2023/01/11 02:07:10;;;;;;;1.63;1.10;;;;;;;5.07;93.85;96448.13;4979952;28;20231;-70
2023/01/11 02:09:43;;;;;;;1.10;0.70;;;;;;;5.14;93.22;96444.84;4980078;28;20207;-70
2023/01/11 02:12:11;;;;;;;2.77;0.93;;;;;;;5.21;93.06;96439.88;4979734;28;20203;-70
2023/01/11 02:14:40;;;;;;;1.33;1.00;;;;;;;5.09;92.61;96447.03;4979749;28;20206;-70
2023/01/11 02:17:07;;;;;;;1.83;0.90;;;;;;;5.13;91.85;96444.94;4979445;28;20239;-69
2023/01/11 02:19:47;;;;;;;1.40;1.00;;;;;;;5.40;90.12;96439.81;4979551;28;20227;-70
2023/01/11 02:22:34;;;;;;;2.50;0.73;;;;;;;5.49;88.53;96434.59;4980254;28;20207;-70
2023/01/11 02:25:46;;;;;;;4.67;1.00;;;;;;;5.48;88.86;96430.31;4978470;28;20211;-69
2023/01/11 02:28:17;;;;;;;1.83;1.00;;;;;;;5.43;89.92;96430.75;4969556;28;20265;-70
2023/01/11 02:30:53;;;;;;;1.87;0.80;;;;;;;5.42;88.55;96430.88;4980291;28;21210;-69
2023/01/11 02:33:28;;;;;;;2.93;0.73;;;;;;;5.50;88.05;96418.75;4979902;28;20206;-69
2023/01/11 02:36:07;;;;;;;1.10;0.70;;;;;;;5.35;90.40;96421.16;4979211;28;20214;-70
2023/01/11 02:38:40;;;;;;;1.83;0.90;;;;;;;5.42;89.47;96423.03;4980284;28;20336;-70
2023/01/11 02:41:18;;;;;;;2.97;0.70;;;;;;;5.43;88.36;96402.00;4979800;28;20261;-70
2023/01/11 02:46:44;;;;;;;1.73;0.60;;;;;;;5.66;87.34;96400.66;4979856;28;20272;-70
2023/01/11 02:49:18;;;;;;;2.30;0.77;;;;;;;5.72;87.72;96399.28;4979621;28;20221;-69
2023/01/11 02:51:50;;;;;;;1.60;0.80;;;;;;;5.71;87.98;96397.63;4979879;28;20989;-70
2023/01/11 02:54:19;;;;;;;1.13;0.70;;;;;;;5.70;87.98;96390.75;4978608;28;20203;-70
2023/01/11 02:56:49;;;;;;;4.07;0.90;;;;;;;5.63;89.49;96389.69;4979460;28;20325;-70
2023/01/11 02:59:20;;;;;;;0.47;0.43;;;;;;;5.73;89.30;96395.72;4979041;28;20277;-70
2023/01/11 03:01:48;;;;;;;0.60;0.60;;;;;;;5.63;89.16;96395.75;4979465;28;20200;-69
2023/01/11 03:04:25;;;;;;;1.77;0.80;;;;;;;5.87;88.35;96385.63;4977968;28;21063;-70
2023/01/11 03:07:02;;;;;;;0.83;0.60;;;;;;;5.78;88.69;96390.88;4978826;28;20222;-70
2023/01/11 03:09:38;;;;;;;1.70;0.77;;;;;;;5.85;87.62;96395.41;4979118;28;20229;-70
2023/01/11 03:15:20;;;;;;;1.63;0.87;;;;;;;5.87;87.50;96382.19;4977996;28;20210;-69
2023/01/11 03:17:53;;;;;;;0.93;0.63;;;;;;;5.93;87.14;96386.84;4979049;28;20778;-70
2023/01/11 03:20:24;;;;;;;3.03;1.03;;;;;;;5.92;87.29;96395.63;4978368;28;20616;-69
2023/01/11 03:23:03;;;;;;;1.77;0.73;;;;;;;5.99;86.60;96386.25;4978821;28;20210;-69
2023/01/11 03:25:37;;;;;;;4.57;0.50;;;;;;;6.00;86.46;96393.16;4978283;28;20210;-69
2023/01/11 03:28:13;;;;;;;2.17;0.83;;;;;;;6.14;85.36;96389.06;4978234;28;20285;-70
2023/01/11 03:30:50;;;;;;;0.60;0.50;;;;;;;6.06;85.92;96383.75;4978805;28;20214;-69
2023/01/11 03:33:22;;;;;;;2.53;0.70;;;;;;;6.12;85.79;96380.53;4978713;28;20207;-70
2023/01/11 03:35:55;;;;;;;2.40;0.60;;;;;;;6.06;86.46;96386.34;4977442;28;20207;-69
2023/01/11 03:38:27;;;;;;;1.30;0.70;;;;;;;6.10;86.09;96385.09;4978661;28;20207;-70
2023/01/11 03:40:58;;;;;;;1.93;0.80;;;;;;;6.15;85.92;96375.00;4978583;28;20234;-69
2023/01/11 03:43:27;;;;;;;1.17;0.80;;;;;;;6.15;85.60;96366.34;4978566;28;20211;-70
2023/01/11 03:45:58;;;;;;;1.17;0.60;;;;;;;6.12;86.01;96362.22;4977500;28;20211;-70
2023/01/11 03:48:30;;;;;;;0.67;0.60;;;;;;;6.16;87.16;96362.75;4979290;28;20203;-70
2023/01/11 03:50:58;;;;;;;0.97;0.60;;;;;;;6.11;86.24;96355.34;4978433;28;20203;-69
2023/01/11 03:53:28;;;;;;;0.63;0.60;;;;;;;6.17;85.71;96352.16;4978399;28;20203;-69
2023/01/11 03:55:58;;;;;;;0.90;0.60;;;;;;;6.30;85.18;96350.00;4975887;28;20207;-70
2023/01/11 03:58:26;;;;;;;3.27;0.70;;;;;;;6.26;85.46;96353.03;4978077;28;20211;-70
2023/01/11 04:00:54;;;;;;;3.57;0.90;;;;;;;6.22;86.49;96349.06;4977588;28;20219;-69
2023/01/11 04:03:22;;;;;;;0.97;0.60;;;;;;;6.26;86.64;96342.56;4978162;28;20207;-69
2023/01/11 04:05:52;;;;;;;1.47;0.83;;;;;;;6.21;86.30;96347.44;4977113;28;20211;-70
2023/01/11 04:08:19;;;;;;;2.67;0.80;;;;;;;6.21;86.03;96350.88;4977736;28;20210;-69
2023/01/11 04:10:46;;;;;;;0.57;0.57;;;;;;;6.23;87.02;96338.47;4977967;28;20207;-70
2023/01/11 04:13:12;;;;;;;1.33;0.70;;;;;;;6.25;86.88;96347.00;4977632;28;20681;-70
2023/01/11 04:15:38;;;;;;;9.83;0.70;;;;;;;6.31;86.92;96349.03;4976225;28;20586;-69
2023/01/11 04:18:05;;;;;;;0.60;0.60;;;;;;;6.27;88.10;96341.59;4977352;28;20227;-70
2023/01/11 04:20:35;;;;;;;1.57;0.60;;;;;;;6.38;88.16;96334.38;4977918;28;20520;-69
2023/01/11 04:23:01;;;;;;;0.60;0.50;;;;;;;6.27;89.11;96339.00;4977794;28;20246;-70
2023/01/11 04:25:28;;;;;;;1.13;0.70;;;;;;;6.28;88.39;96341.47;4976826;28;20561;-69
2023/01/11 04:27:55;;;;;;;2.90;0.50;;;;;;;6.17;88.84;96339.06;4977566;28;20227;-69
2023/01/11 04:30:21;;;;;;;3.43;0.70;;;;;;;6.22;89.05;96321.13;4978396;28;20214;-69
2023/01/11 04:32:48;;;;;;;3.60;0.60;;;;;;;6.36;88.15;96327.63;4977969;28;20203;-69
2023/01/11 04:35:14;;;;;;;0.60;0.60;;;;;;;6.35;87.96;96326.81;4976980;28;20694;-69
2023/01/11 04:37:42;;;;;;;1.50;0.67;;;;;;;6.47;87.30;96322.19;4978081;28;20231;-69
2023/01/11 04:40:10;;;;;;;4.37;1.00;;;;;;;6.44;87.46;96323.31;4977559;28;20229;-69
2023/01/11 04:42:35;;;;;;;2.80;0.97;;;;;;;6.37;87.43;96335.31;4977859;28;20214;-69
2023/01/11 04:45:04;;;;;;;1.03;0.93;;;;;;;6.60;86.53;96331.28;4977326;28;20206;-69
2023/01/11 04:47:31;;;;;;;0.90;0.50;;;;;;;6.56;86.29;96324.72;4977083;28;20718;-69
2023/01/11 04:49:57;;;;;;;1.13;0.70;;;;;;;6.55;85.93;96323.06;4977715;28;20204;-70
2023/01/11 04:52:23;;;;;;;5.77;1.10;;;;;;;6.52;85.72;96331.22;4977916;28;20218;-69
2023/01/11 04:54:52;;;;;;;3.63;0.80;;;;;;;6.72;85.35;96338.78;4977312;28;20558;-69
2023/01/11 04:57:19;;;;;;;2.30;1.23;;;;;;;6.73;84.94;96334.34;4977222;28;20285;-69
2023/01/11 04:59:46;;;;;;;5.73;1.63;;;;;;;6.65;85.51;96342.94;4978299;28;20226;-69
2023/01/11 05:02:12;;;;;;;1.10;1.00;;;;;;;6.59;85.24;96347.97;4977063;28;20318;-69
2023/01/11 05:04:39;;;;;;;2.50;1.17;;;;;;;6.66;84.95;96344.59;4977311;28;20207;-69
2023/01/11 05:07:06;;;;;;;1.10;0.80;;;;;;;6.72;85.15;96340.53;4977370;28;21086;-70
2023/01/11 05:09:33;;;;;;;3.67;0.80;;;;;;;6.71;85.40;96342.34;4977684;28;20254;-69
2023/01/11 05:12:00;;;;;;;1.33;0.70;;;;;;;6.72;84.64;96337.94;4977599;28;20251;-69
2023/01/11 05:14:27;;;;;;;0.83;0.70;;;;;;;6.57;85.34;96342.06;4976901;28;20227;-69
2023/01/11 05:16:53;;;;;;;0.70;0.53;;;;;;;6.70;84.71;96339.91;4977426;28;20737;-69
2023/01/11 05:19:20;;;;;;;3.00;0.70;;;;;;;6.73;85.17;96334.34;4977305;28;20218;-69
2023/01/11 05:21:46;;;;;;;1.50;0.87;;;;;;;6.67;85.35;96337.59;4978064;28;20695;-69
2023/01/11 05:24:15;;;;;;;1.47;1.00;;;;;;;6.74;84.74;96339.41;4978348;28;20203;-69
2023/01/11 05:26:43;;;;;;;1.70;0.87;;;;;;;6.65;84.88;96336.91;4977575;28;20866;-69
2023/01/11 05:29:15;;;;;;;2.60;1.00;;;;;;;6.80;84.61;96327.53;4981135;28;20207;-69
2023/01/11 05:31:41;;;;;;;2.97;1.17;;;;;;;6.65;86.42;96326.44;4981233;28;20234;-70
2023/01/11 05:34:10;;;;;;;0.97;0.80;;;;;;;6.64;86.07;96327.41;4980157;28;20200;-69
2023/01/11 05:36:36;;;;;;;4.70;0.77;;;;;;;6.61;85.97;96326.91;4980541;28;21031;-70
2023/01/11 05:39:05;;;;;;;1.53;0.70;;;;;;;6.67;85.77;96324.50;4981059;28;20239;-70
2023/01/11 05:41:31;;;;;;;1.47;0.90;;;;;;;6.69;86.43;96323.38;4981503;28;20238;-70
2023/01/11 05:46:44;;;;;;;1.93;0.70;;;;;;;6.65;85.81;96318.56;4981579;28;20281;-69
2023/01/11 05:49:12;;;;;;;1.30;0.97;;;;;;;6.67;86.32;96311.41;4980429;28;20211;-69
2023/01/11 05:51:39;;;;;;;1.67;1.10;;;;;;;6.66;85.55;96307.13;4980976;28;20242;-69
2023/01/11 05:54:07;;;;;;;3.20;1.17;;;;;;;6.69;86.04;96312.91;4979859;28;20739;-69
2023/01/11 05:56:33;;;;;;;1.13;0.87;;;;;;;6.73;86.10;96323.88;4980673;28;20226;-69
2023/01/11 05:59:00;;;;;;;0.83;0.53;;;;;;;6.71;85.39;96320.59;4980389;28;20211;-69
2023/01/11 06:01:26;;;;;;;6.17;0.83;;;;;;;6.72;85.74;96332.69;4980294;28;20231;-70
2023/01/11 06:03:54;;;;;;;1.67;0.87;;;;;;;6.87;86.41;96324.16;4979522;28;20195;-69
2023/01/11 06:06:21;;;;;;;3.13;0.97;;;;;;;6.81;85.76;96314.28;4980526;28;20223;-69
2023/01/11 06:08:47;;;;;;;1.43;0.90;;;;;;;6.76;85.50;96324.41;4981001;28;20211;-69
2023/01/11 06:11:14;;;;;;;2.80;1.00;;;;;;;6.75;86.30;96320.13;4979979;28;20214;-70
2023/01/11 06:13:41;;;;;;;1.80;0.80;;;;;;;6.72;85.63;96309.13;4979265;28;20322;-69
2023/01/11 06:16:10;;;;;;;2.43;0.80;;;;;;;6.90;85.37;96310.75;4980050;28;20239;-69
2023/01/11 06:18:38;;;;;;;1.40;0.80;;;;;;;6.75;85.87;96301.78;4980113;28;20219;-70
2023/01/11 06:21:07;;;;;;;1.53;0.97;;;;;;;6.88;85.84;96298.78;4979573;28;20227;-69
2023/01/11 06:23:36;;;;;;;2.17;1.07;;;;;;;6.77;85.44;96285.94;4979763;28;20215;-69
2023/01/11 06:26:04;;;;;;;1.43;0.90;;;;;;;6.69;85.32;96275.41;4979753;28;20210;-70
2023/01/11 06:28:30;;;;;;;2.47;1.07;;;;;;;6.67;86.11;96264.28;4979762;28;20227;-70
2023/01/11 06:30:58;;;;;;;3.70;1.30;;;;;;;6.68;86.38;96245.78;4979562;28;20211;-70
2023/01/11 06:33:27;;;;;;;2.63;1.10;;;;;;;6.70;86.07;96229.91;4979705;28;20204;-70
2023/01/11 06:35:54;;;;;;;2.83;0.97;;;;;;;6.71;85.80;96223.72;4979874;28;20219;-69
2023/01/11 06:38:23;;;;;;;2.67;0.83;;;;;;;6.84;84.56;96213.66;4979289;28;20230;-69
2023/01/11 06:40:54;;;;;;;2.63;0.83;;;;;;;6.84;84.69;96214.44;4978701;28;20717;-69
2023/01/11 06:43:22;;;;;;;1.67;1.00;;;;;;;6.69;85.06;96228.28;4980016;28;20207;-69
2023/01/11 06:45:48;;;;;;;1.47;0.73;;;;;;;6.75;84.89;96235.53;4979069;28;20214;-69
2023/01/11 06:48:15;;;;;;;5.50;1.93;;;;;;;6.78;84.67;96222.94;4979893;28;21189;-68
2023/01/11 06:50:41;;;;;;;2.00;0.90;;;;;;;6.80;84.22;96223.59;4979899;28;21051;-69
2023/01/11 06:53:08;;;;;;;3.93;2.13;;;;;;;6.79;85.29;96242.09;4978672;28;20207;-69
2023/01/11 06:55:35;;;;;;;6.10;1.47;;;;;;;6.95;84.22;96242.19;4978518;28;20207;-69
2023/01/11 06:58:02;;;;;;;9.27;2.23;;;;;;;6.72;85.32;96241.03;4980067;28;20234;-69
2023/01/11 07:00:28;;;;;;;2.67;0.93;;;;;;;6.64;85.18;96233.13;4978559;28;20231;-69
2023/01/11 07:02:55;;;;;;;4.17;1.17;;;;;;;6.84;84.19;96235.41;4979531;28;20691;-69
2023/01/11 07:05:21;;;;;;;2.93;1.00;;;;;;;6.84;84.10;96248.50;4978297;28;20504;-69
2023/01/11 07:07:48;;;;;;;4.20;1.00;;;;;;;6.89;83.96;96250.69;4978981;28;20719;-69
2023/01/11 07:10:16;;;;;;;3.90;0.90;;;;;;;6.88;85.35;96246.41;4978698;28;20206;-69
2023/01/11 07:12:43;;;;;;;4.40;1.07;;;;;;;6.81;85.03;96253.22;4979469;28;20231;-69
2023/01/11 07:15:11;;;;;;;2.47;1.13;;;;;;;6.86;85.20;96266.69;4977806;28;20389;-69
2023/01/11 07:17:37;;;;;;;0.80;0.73;;;;;;;6.89;85.17;96284.72;4979136;28;20250;-69
2023/01/11 07:20:05;;;;;;;1.90;0.90;;;;;;;6.84;85.92;96282.53;4979789;28;20708;-69
2023/01/11 07:22:33;;;;;;;0.60;0.60;;;;;;;6.91;85.88;96277.50;4979092;28;20294;-69
2023/01/11 07:24:59;;;;;;;1.23;1.00;;;;;;;6.78;85.86;96279.72;4977997;28;20202;-69
2023/01/11 07:27:26;;;;;;;2.40;1.00;;;;;;;6.88;85.94;96280.44;4978656;28;20647;-69
2023/01/11 07:29:54;;;;;;;6.37;2.90;;;;;;;6.99;85.52;96288.06;4979255;28;20207;-69
2023/01/11 07:32:20;;;;;;;3.33;1.57;;;;;;;6.86;85.65;96300.72;4978144;28;20210;-69
2023/01/11 07:34:47;;;;;;;0.80;0.73;;;;;;;6.89;86.42;96296.00;4978056;28;20203;-69
2023/01/11 07:37:13;;;;;;;1.27;0.90;;;;;;;6.96;86.06;96296.22;4977491;28;20227;-69
2023/01/11 07:39:40;;;;;;;5.77;2.30;;;;;;;6.79;86.87;96284.00;4978508;28;20207;-69
2023/01/11 07:44:50;;;;;;;3.23;1.23;;;;;;;6.90;86.64;96281.13;4978120;28;20581;-69
2023/01/11 07:47:18;;;;;;;1.63;0.80;;;;;;;6.98;86.49;96281.19;4978115;28;20238;-69
2023/01/11 07:49:45;;;;;;;8.53;2.07;;;;;;;6.89;86.65;96269.00;4978673;28;20218;-69
2023/01/11 07:52:12;;;;;;;10.57;5.13;;;;;;;6.92;87.08;96253.78;4977675;28;20234;-69
2023/01/11 07:54:38;;;;;;;3.80;1.80;;;;;;;6.91;87.68;96262.63;4977656;28;20211;-69
2023/01/11 07:57:05;;;;;;;2.10;1.37;;;;;;;6.85;88.35;96258.00;4978099;28;20231;-69
2023/01/11 07:59:31;;;;;;;2.27;1.20;;;;;;;6.91;87.69;96253.94;4979097;28;20213;-69
2023/01/11 08:01:57;;;;;;;1.97;1.13;;;;;;;6.97;87.71;96258.56;4978151;28;20235;-69
2023/01/11 08:04:25;;;;;;;2.27;1.57;;;;;;;7.14;88.07;96257.69;4977098;28;20207;-70
2023/01/11 08:06:52;;;;;;;1.80;1.20;;;;;;;6.80;88.53;96257.66;4977721;28;20223;-70
2023/01/11 08:09:18;;;;;;;1.13;0.90;;;;;;;6.92;88.25;96258.22;4978157;28;20207;-70
2023/01/11 08:14:41;;;;;;;1.17;0.70;;;;;;;7.06;87.68;96253.22;4977412;28;20689;-70
2023/01/11 08:17:08;;;;;;;2.37;1.00;;;;;;;7.03;88.50;96248.28;4977175;28;20234;-70
2023/01/11 08:19:36;;;;;;;2.27;0.77;;;;;;;7.13;88.01;96245.56;4978511;28;20211;-70
2023/01/11 08:22:03;;;;;;;2.33;1.00;;;;;;;7.07;87.56;96252.25;4977738;28;20226;-70
2023/01/11 08:24:29;;;;;;;2.37;0.80;;;;;;;7.25;86.71;96244.31;4976853;28;20211;-70
2023/01/11 08:26:56;;;;;;;1.73;0.80;;;;;;;7.20;87.55;96244.78;4977455;28;20234;-70
2023/01/11 08:29:22;;;;;;;3.27;1.33;;;;;;;7.25;87.74;96246.94;4977956;28;20202;-70
2023/01/11 08:31:49;;;;;;;22.47;6.93;;;;;;;7.32;87.09;96248.78;4978509;28;20218;-70
2023/01/11 08:34:16;;;;;;;6.57;1.90;;;;;;;7.27;87.61;96254.47;4976928;28;20234;-70
2023/01/11 08:36:44;;;;;;;1.40;0.97;;;;;;;7.40;86.66;96254.88;4978185;28;20231;-70
2023/01/11 08:39:10;;;;;;;2.87;1.23;;;;;;;7.41;86.87;96259.13;4977917;28;20211;-70
2023/01/11 08:41:38;;;;;;;1.97;1.07;;;;;;;7.45;86.91;96257.84;4978013;28;20289;-70
2023/01/11 08:44:05;;;;;;;1.10;0.80;;;;;;;7.56;86.99;96265.44;4976669;28;20199;-70
2023/01/11 08:46:32;;;;;;;1.93;0.97;;;;;;;7.62;86.20;96271.84;4978222;28;20238;-70
2023/01/11 08:48:59;;;;;;;3.97;1.13;;;;;;;7.71;85.79;96273.50;4977549;28;20638;-70
2023/01/11 08:51:25;;;;;;;1.97;0.87;;;;;;;7.75;85.48;96275.69;4977925;28;20199;-70
2023/01/11 08:53:53;;;;;;;2.40;0.83;;;;;;;7.82;85.81;96263.56;4976751;28;20208;-70
2023/01/11 08:56:20;;;;;;;1.47;0.70;;;;;;;7.78;85.25;96274.50;4977467;28;20237;-70
2023/01/11 08:58:46;;;;;;;6.50;1.00;;;;;;;7.85;85.63;96281.59;4977076;28;20217;-70
2023/01/11 09:01:12;;;;;;;1.70;0.90;;;;;;;7.97;85.88;96285.56;4977470;28;20621;-70
2023/01/11 09:03:39;;;;;;;2.60;1.20;;;;;;;8.09;85.49;96281.66;4979450;28;20218;-70
2023/01/11 09:06:06;;;;;;;1.87;1.00;;;;;;;8.15;84.21;96278.44;4980996;28;20226;-70
2023/01/11 09:08:32;;;;;;;3.00;1.40;;;;;;;8.28;83.55;96284.03;4980679;28;20203;-70
2023/01/11 09:11:00;;;;;;;2.20;0.90;;;;;;;8.49;84.10;96278.13;4981158;28;20196;-70
2023/01/11 09:13:27;;;;;;;3.07;0.80;;;;;;;8.63;82.70;96269.63;4980056;28;20211;-70
2023/01/11 09:15:56;;;;;;;0.50;0.50;;;;;;;8.61;83.75;96274.19;4979650;28;20937;-70
2023/01/11 09:18:22;;;;;;;3.70;0.73;;;;;;;8.59;81.63;96278.81;4981168;28;20470;-70
2023/01/11 09:20:50;;;;;;;1.30;0.60;;;;;;;8.83;81.09;96277.97;4980948;28;20317;-70
2023/01/11 09:23:17;;;;;;;2.43;0.90;;;;;;;8.63;81.63;96274.88;4980574;28;20211;-70
2023/01/11 09:25:44;;;;;;;1.30;1.00;;;;;;;8.73;82.05;96265.03;4979057;28;20741;-70
2023/01/11 09:28:11;;;;;;;0.57;0.57;;;;;;;8.65;81.85;96267.63;4980941;28;20962;-70
2023/01/11 09:30:38;;;;;;;2.40;0.90;;;;;;;8.49;81.78;96272.88;4980148;28;20214;-70
2023/01/11 09:33:05;;;;;;;2.83;0.60;;;;;;;8.58;81.47;96261.41;4980339;28;20374;-70
2023/01/11 09:35:32;;;;;;;1.97;1.07;;;;;;;8.80;80.78;96270.44;4979092;28;21272;-70
2023/01/11 09:38:00;;;;;;;1.97;0.90;;;;;;;8.62;81.78;96261.91;4980222;28;20769;-70
2023/01/11 09:40:40;;;;;;;1.67;0.77;;;;;;;8.78;82.37;96267.97;4979672;28;20388;-70
2023/01/11 09:43:11;;;;;;;3.30;0.93;;;;;;;8.78;83.04;96267.13;4980115;28;20211;-70
2023/01/11 09:45:45;;;;;;;3.33;1.57;;;;;;;8.90;81.75;96271.91;4979199;28;20469;-70
2023/01/11 09:48:25;;;;;;;2.00;1.07;;;;;;;8.88;81.99;96275.69;4979702;28;20211;-70
2023/01/11 09:50:52;;;;;;;2.07;1.00;;;;;;;8.78;82.10;96275.00;4979953;28;20313;-70
2023/01/11 09:53:26;;;;;;;3.20;1.20;;;;;;;8.96;81.23;96273.03;4980268;28;20210;-70
2023/01/11 09:55:56;;;;;;;2.17;1.20;;;;;;;8.81;82.22;96270.25;4979279;28;20302;-70
2023/01/11 09:58:52;;;;;;;2.37;1.37;;;;;;;8.98;81.89;96269.25;4980008;28;20211;-70
2023/01/11 10:01:28;;;;;;;2.70;1.17;;;;;;;8.85;82.49;96260.25;4978292;28;20254;-71
2023/01/11 10:04:24;;;;;;;4.07;1.53;;;;;;;9.05;82.88;96262.34;4980021;28;20298;-70
2023/01/11 10:07:05;;;;;;;5.60;1.00;;;;;;;8.92;82.55;96248.06;4979562;28;20297;-70
2023/01/11 10:09:36;;;;;;;9.50;2.33;;;;;;;9.00;82.84;96251.53;4979492;28;20207;-70
2023/01/11 10:12:13;;;;;;;4.43;1.70;;;;;;;9.04;83.65;96247.56;4980122;28;20206;-70
2023/01/11 10:14:56;;;;;;;3.87;1.70;;;;;;;8.99;83.72;96242.00;4978359;28;20219;-70
2023/01/11 10:17:36;;;;;;;4.00;1.63;;;;;;;8.97;84.61;96238.69;4979183;28;20238;-70
2023/01/11 10:20:11;;;;;;;7.57;2.37;;;;;;;9.13;85.26;96228.16;4979134;28;20629;-70
2023/01/11 10:22:43;;;;;;;4.83;1.90;;;;;;;8.97;85.43;96225.56;4979900;28;20284;-70
2023/01/11 10:25:19;;;;;;;5.07;1.70;;;;;;;9.06;86.20;96224.53;4978697;28;20312;-70
2023/01/11 10:27:55;;;;;;;3.37;1.50;;;;;;;9.18;85.65;96210.88;4978799;28;20317;-70
2023/01/11 10:30:40;;;;;;;1.83;1.40;;;;;;;9.08;85.74;96211.25;4979996;28;20730;-70
2023/01/11 10:33:45;;;;;;;2.57;1.20;;;;;;;9.14;85.16;96206.16;4979624;28;20217;-70
2023/01/11 10:36:33;;;;;;;2.40;1.03;;;;;;;9.15;85.11;96205.13;4978935;28;20223;-70
2023/01/11 10:39:14;;;;;;;3.00;1.20;;;;;;;9.21;86.14;96192.13;4979150;28;20297;-69
2023/01/11 10:41:53;;;;;;;6.23;2.10;;;;;;;9.24;85.73;96186.56;4978572;28;20233;-69
2023/01/11 10:44:29;;;;;;;3.83;1.67;;;;;;;9.38;85.61;96185.00;4977546;28;20219;-68
2023/01/11 10:46:57;;;;;;;4.90;1.63;;;;;;;9.23;86.36;96186.72;4978443;28;20896;-69
2023/01/11 10:49:42;;;;;;;4.57;1.40;;;;;;;9.42;85.50;96188.94;4979063;28;20207;-69
2023/01/11 10:52:24;;;;;;;4.07;1.40;;;;;;;9.49;85.25;96188.06;4979323;28;20295;-69
2023/01/11 10:54:54;;;;;;;3.00;1.40;;;;;;;9.46;86.36;96185.00;4978499;28;20679;-69
2023/01/11 10:57:35;;;;;;;5.10;1.20;;;;;;;9.67;85.78;96183.38;4978703;28;20223;-69
2023/01/11 11:00:15;;;;;;;1.60;0.90;;;;;;;9.72;86.56;96189.78;4979374;28;20225;-69
2023/01/11 11:03:07;;;;;;;1.13;0.73;;;;;;;9.83;86.13;96196.47;4979223;28;20613;-69
2023/01/11 11:05:42;;;;;;;1.27;0.97;;;;;;;9.83;86.49;96180.69;4978175;28;20207;-69
2023/01/11 11:08:13;;;;;;;5.07;1.00;;;;;;;9.79;86.19;96185.47;4979066;28;20714;-69
2023/01/11 11:10:50;;;;;;;1.83;0.83;;;;;;;9.82;87.57;96184.28;4979995;28;20207;-69
2023/01/11 11:13:23;;;;;;;3.03;0.80;;;;;;;9.71;86.53;96177.63;4979036;28;20287;-69
2023/01/11 11:15:56;;;;;;;2.03;1.10;;;;;;;9.73;86.75;96177.44;4978372;28;20214;-69
2023/01/11 11:18:23;;;;;;;1.07;0.80;;;;;;;9.71;85.99;96182.88;4978556;28;20218;-69
2023/01/11 11:20:50;;;;;;;2.07;1.00;;;;;;;9.67;87.04;96172.06;4978803;28;20212;-69
2023/01/11 11:23:21;;;;;;;3.60;1.03;;;;;;;9.85;86.81;96174.25;4978756;28;20227;-69
2023/01/11 11:25:51;;;;;;;4.73;0.87;;;;;;;9.85;86.34;96179.50;4978431;28;20234;-69
2023/01/11 11:28:26;;;;;;;2.57;1.30;;;;;;;9.85;86.53;96171.63;4978119;28;20746;-69
2023/01/11 11:30:55;;;;;;;0.67;0.67;;;;;;;9.76;88.12;96166.56;4978658;28;20718;-69
2023/01/11 11:33:24;;;;;;;1.40;0.90;;;;;;;9.69;91.00;96171.69;4978874;28;20222;-69
2023/01/11 11:35:57;;;;;;;2.20;0.97;;;;;;;9.76;91.71;96166.56;4977246;28;20230;-68
2023/01/11 11:38:27;;;;;;;2.27;1.00;;;;;;;9.62;92.90;96159.41;4978162;28;20583;-69
2023/01/11 11:41:03;;;;;;;1.53;1.07;;;;;;;9.51;93.44;96157.19;4979592;28;20211;-68
2023/01/11 11:43:31;;;;;;;3.33;1.70;;;;;;;9.48;94.95;96154.06;4977863;28;20203;-69
2023/01/11 11:46:00;;;;;;;2.93;1.30;;;;;;;9.46;95.37;96151.63;4977737;28;20207;-69
2023/01/11 11:48:28;;;;;;;2.00;1.00;;;;;;;9.30;96.56;96145.59;4978483;28;20554;-68
2023/01/11 11:50:59;;;;;;;1.73;1.10;;;;;;;9.30;97.99;96142.97;4978414;28;20289;-69
2023/01/11 11:53:32;;;;;;;2.37;0.97;;;;;;;9.17;98.97;96142.72;4977977;28;20199;-69
2023/01/11 11:56:05;;;;;;;8.67;2.47;;;;;;;9.30;99.37;96133.25;4977535;28;21012;-69
2023/01/11 11:58:31;;;;;;;10.10;3.13;;;;;;;9.35;99.70;96128.31;4978405;28;20708;-69
2023/01/11 12:00:58;;;;;;;2.53;1.37;;;;;;;9.19;99.77;96119.72;4978168;28;20211;-69
2023/01/11 12:03:29;;;;;;;1.97;1.30;;;;;;;9.38;99.18;96114.84;4978076;28;20237;-69
2023/01/11 12:06:00;;;;;;;2.53;1.10;;;;;;;9.37;100.00;96120.28;4977513;28;20203;-69
2023/01/11 12:08:28;;;;;;;1.80;1.00;;;;;;;9.26;99.35;96110.94;4977845;28;20211;-69
2023/01/11 12:10:57;;;;;;;2.50;1.03;;;;;;;9.39;98.70;96108.56;4978386;28;20206;-69
2023/01/11 12:13:27;;;;;;;0.63;0.63;;;;;;;9.47;98.13;96112.97;4978199;28;20207;-68
2023/01/11 12:15:59;;;;;;;3.03;1.40;;;;;;;9.54;98.20;96109.47;4977434;28;20211;-69
2023/01/11 12:18:27;;;;;;;2.50;1.27;;;;;;;9.39;98.02;96099.88;4977898;28;20211;-68
2023/01/11 12:20:54;;;;;;;1.93;1.20;;;;;;;9.53;97.36;96107.03;4977995;28;20215;-69
2023/01/11 12:23:24;;;;;;;5.07;1.93;;;;;;;9.64;97.27;96101.38;4977689;28;20227;-68